createdAt,value
2018-09-10T00:00:01.165Z,100.00
2018-09-10T00:01:28.145Z,100.00
2018-09-10T00:02:59.525Z,100.00
2018-09-10T00:04:22.072Z,100.00
2018-09-10T00:05:48.712Z,100.00
2018-09-10T00:07:20.133Z,100.00
2018-09-10T00:08:47.595Z,100.00
2018-09-10T00:10:15.042Z,100.00
2018-09-10T00:11:41.673Z,100.00
2018-09-10T00:13:09.032Z,100.00
2018-09-10T00:14:32.296Z,100.00
2018-09-10T00:15:59.719Z,100.00
2018-09-10T00:17:31.031Z,100.00
2018-09-10T00:18:58.638Z,100.00
2018-09-10T00:20:21.116Z,100.00
2018-09-10T00:21:48.370Z,100.00
2018-09-10T00:23:15.898Z,100.00
2018-09-10T00:24:43.339Z,100.00
2018-09-10T00:26:14.596Z,100.00
2018-09-10T00:27:37.707Z,100.00
2018-09-10T00:29:05.112Z,100.00
2018-09-10T00:30:36.713Z,100.00
2018-09-10T00:32:04.024Z,100.00
2018-09-10T00:33:26.907Z,100.00
2018-09-10T00:34:58.452Z,100.00
2018-09-10T00:36:25.151Z,100.00
2018-09-10T00:37:52.016Z,100.00
2018-09-10T00:39:19.470Z,100.00
2018-09-10T00:40:42.780Z,100.00
2018-09-10T00:42:13.681Z,100.00
2018-09-10T00:43:40.618Z,100.00
2018-09-10T00:45:03.228Z,100.00
2018-09-10T00:46:34.084Z,100.00
2018-09-10T00:48:01.107Z,100.00
2018-09-10T00:49:23.993Z,100.00
2018-09-10T00:50:51.340Z,100.00
2018-09-10T00:52:18.829Z,100.00
2018-09-10T00:53:46.143Z,100.00
2018-09-10T00:55:12.946Z,100.00
2018-09-10T00:56:40.385Z,100.00
2018-09-10T00:58:11.231Z,100.00
2018-09-10T00:59:34.191Z,100.00
2018-09-10T01:01:05.339Z,100.00
2018-09-10T01:02:32.745Z,100.00
2018-09-10T01:03:55.150Z,100.00
2018-09-10T01:05:22.447Z,100.00
2018-09-10T01:06:54.112Z,100.00
2018-09-10T01:08:17.078Z,100.00
2018-09-10T01:09:48.708Z,100.00
2018-09-10T01:11:16.048Z,100.00
2018-09-10T01:12:43.482Z,100.00
2018-09-10T01:14:06.690Z,100.00
2018-09-10T01:15:38.163Z,100.00
2018-09-10T01:17:00.926Z,100.00
2018-09-10T01:18:32.345Z,100.00
2018-09-10T01:26:12.864Z,100.00
2018-09-10T01:27:39.438Z,100.00
2018-09-10T01:29:09.928Z,100.00
2018-09-10T01:30:31.858Z,100.00
2018-09-10T01:32:03.092Z,100.00
2018-09-10T01:34:37.618Z,100.00
2018-09-10T01:36:04.103Z,100.00
2018-09-10T01:37:30.431Z,100.00
2018-09-10T01:38:57.892Z,100.00
2018-09-10T01:40:25.126Z,100.00
2018-09-10T01:41:48.509Z,100.00
2018-09-10T01:43:16.037Z,100.00
2018-09-10T01:44:42.702Z,100.00
2018-09-10T01:46:10.153Z,100.00
2018-09-10T01:47:37.592Z,100.00
2018-09-10T01:49:04.389Z,100.00
2018-09-10T01:50:31.637Z,100.00
2018-09-10T01:51:58.634Z,100.00
2018-09-10T01:53:26.128Z,100.00
2018-09-10T01:54:57.097Z,100.00
2018-09-10T01:56:24.372Z,100.00
2018-09-10T01:57:47.712Z,100.00
2018-09-10T01:59:15.140Z,100.00
2018-09-10T02:00:46.755Z,100.00
2018-09-10T02:02:10.035Z,100.00
2018-09-10T02:03:41.552Z,100.00
2018-09-10T02:05:04.292Z,100.00
2018-09-10T02:09:30.103Z,100.00
2018-09-10T02:10:52.738Z,100.00
2018-09-10T02:12:23.897Z,100.00
2018-09-10T02:13:51.370Z,100.00
2018-09-10T02:15:14.795Z,100.00
2018-09-10T02:16:41.592Z,100.00
2018-09-10T02:18:12.953Z,100.00
2018-09-10T02:19:40.413Z,100.00
2018-09-10T02:21:03.649Z,100.00
2018-09-10T02:22:31.076Z,100.00
2018-09-10T02:24:02.463Z,100.00
2018-09-10T02:25:25.641Z,100.00
2018-09-10T02:26:57.020Z,100.00
2018-09-10T02:28:20.380Z,100.00
2018-09-10T02:29:47.844Z,100.00
2018-09-10T02:31:18.815Z,100.00
2018-09-10T02:32:42.091Z,100.00
2018-09-10T02:34:09.451Z,100.00
2018-09-10T02:35:40.867Z,100.00
2018-09-10T02:37:07.769Z,100.00
2018-09-10T02:38:35.189Z,100.00
2018-09-10T02:39:58.619Z,100.00
2018-09-10T02:41:29.430Z,100.00
2018-09-10T02:42:56.764Z,100.00
2018-09-10T02:44:20.007Z,100.00
2018-09-10T02:45:51.348Z,100.00
2018-09-10T02:47:14.715Z,100.00
2018-09-10T02:48:42.021Z,100.00
2018-09-10T02:50:13.356Z,100.00
2018-09-10T02:51:40.848Z,100.00
2018-09-10T02:53:04.402Z,100.00
2018-09-10T02:54:35.774Z,100.00
2018-09-10T02:56:03.170Z,100.00
2018-09-10T02:57:25.625Z,100.00
2018-09-10T02:58:56.836Z,100.00
2018-09-10T03:00:20.175Z,100.00
2018-09-10T03:01:47.514Z,100.00
2018-09-10T03:03:14.304Z,100.00
2018-09-10T03:04:41.651Z,100.00
2018-09-10T03:06:13.264Z,100.00
2018-09-10T03:07:36.415Z,100.00
2018-09-10T03:09:07.743Z,100.00
2018-09-10T03:10:30.741Z,100.00
2018-09-10T03:12:02.173Z,100.00
2018-09-10T03:13:28.548Z,100.00
2018-09-10T03:14:56.004Z,100.00
2018-09-10T03:16:23.544Z,100.00
2018-09-10T03:17:46.386Z,100.00
2018-09-10T03:19:13.905Z,100.00
2018-09-10T03:20:41.222Z,100.00
2018-09-10T03:22:08.530Z,100.00
2018-09-10T03:23:35.904Z,100.00
2018-09-10T03:25:06.603Z,100.00
2018-09-10T03:26:33.588Z,100.00
2018-09-10T03:28:00.957Z,100.00
2018-09-10T03:29:24.532Z,100.00
2018-09-10T03:30:55.285Z,100.00
2018-09-10T03:32:22.119Z,100.00
2018-09-10T03:33:45.688Z,100.00
2018-09-10T03:35:17.149Z,100.00
2018-09-10T03:36:44.453Z,100.00
2018-09-10T03:38:11.958Z,100.00
2018-09-10T03:39:38.688Z,100.00
2018-09-10T03:41:02.224Z,100.00
2018-09-10T03:42:33.262Z,100.00
2018-09-10T03:44:00.668Z,100.00
2018-09-10T03:45:27.407Z,100.00
2018-09-10T03:46:54.866Z,100.00
2018-09-10T03:48:22.301Z,100.00
2018-09-10T03:49:45.708Z,100.00
2018-09-10T03:51:17.043Z,100.00
2018-09-10T03:52:44.717Z,100.00
2018-09-10T03:54:07.644Z,100.00
2018-09-10T03:55:38.310Z,100.00
2018-09-10T03:57:01.636Z,100.00
2018-09-10T03:58:29.077Z,100.00
2018-09-10T03:59:56.452Z,100.00
2018-09-10T04:01:27.606Z,100.00
2018-09-10T04:02:50.919Z,100.00
2018-09-10T04:04:18.329Z,100.00
2018-09-10T04:05:49.128Z,100.00
2018-09-10T04:07:12.180Z,100.00
2018-09-10T04:08:42.809Z,100.00
2018-09-10T04:10:06.163Z,100.00
2018-09-10T04:11:37.721Z,100.00
2018-09-10T04:13:01.183Z,100.00
2018-09-10T04:14:28.514Z,100.00
2018-09-10T04:15:55.869Z,100.00
2018-09-10T04:17:27.428Z,100.00
2018-09-10T04:18:50.208Z,100.00
2018-09-10T04:20:21.229Z,100.00
2018-09-10T04:21:43.848Z,100.00
2018-09-10T04:23:15.263Z,100.00
2018-09-10T04:24:38.641Z,100.00
2018-09-10T04:26:10.093Z,100.00
2018-09-10T04:27:33.157Z,100.00
2018-09-10T04:29:04.507Z,100.00
2018-09-10T04:30:28.022Z,100.00
2018-09-10T04:31:59.244Z,100.00
2018-09-10T04:33:26.581Z,100.00
2018-09-10T04:34:49.880Z,100.00
2018-09-10T04:36:20.641Z,100.00
2018-09-10T04:37:48.118Z,100.00
2018-09-10T04:39:11.449Z,100.00
2018-09-10T04:40:42.900Z,100.00
2018-09-10T04:42:06.258Z,100.00
2018-09-10T04:43:37.633Z,100.00
2018-09-10T04:45:04.941Z,100.00
2018-09-10T04:46:32.281Z,100.00
2018-09-10T04:47:59.465Z,100.00
2018-09-10T04:49:22.913Z,100.00
2018-09-10T04:50:54.741Z,100.00
2018-09-10T04:52:22.033Z,100.00
2018-09-10T04:53:45.369Z,100.00
2018-09-10T04:55:12.776Z,100.00
2018-09-10T04:56:39.300Z,100.00
2018-09-10T04:58:10.726Z,100.00
2018-09-10T04:59:37.785Z,100.00
2018-09-10T05:01:05.126Z,100.00
2018-09-10T05:02:32.202Z,100.00
2018-09-10T05:03:58.663Z,100.00
2018-09-10T05:05:21.828Z,100.00
2018-09-10T05:06:53.274Z,100.00
2018-09-10T05:08:20.811Z,100.00
2018-09-10T05:09:48.061Z,100.00
2018-09-10T05:11:11.338Z,100.00
2018-09-10T05:12:38.779Z,100.00
2018-09-10T05:14:05.681Z,100.00
2018-09-10T05:15:36.648Z,100.00
2018-09-10T05:17:03.611Z,100.00
2018-09-10T05:18:26.514Z,100.00
2018-09-10T05:19:58.032Z,100.00
2018-09-10T05:21:24.748Z,100.00
2018-09-10T05:22:47.291Z,100.00
2018-09-10T05:24:14.857Z,100.00
2018-09-10T05:25:46.209Z,100.00
2018-09-10T05:27:13.557Z,100.00
2018-09-10T05:28:37.152Z,100.00
2018-09-10T05:30:04.370Z,100.00
2018-09-10T05:31:35.489Z,100.00
2018-09-10T05:32:59.001Z,100.00
2018-09-10T05:34:26.124Z,100.00
2018-09-10T05:35:56.811Z,100.00
2018-09-10T05:37:24.234Z,100.00
2018-09-10T05:38:47.815Z,100.00
2018-09-10T05:40:19.255Z,100.00
2018-09-10T05:41:46.271Z,100.00
2018-09-10T05:43:08.858Z,100.00
2018-09-10T05:44:40.416Z,100.00
2018-09-10T05:46:07.853Z,100.00
2018-09-10T05:47:35.018Z,100.00
2018-09-10T05:49:02.014Z,100.00
2018-09-10T05:50:25.252Z,100.00
2018-09-10T05:51:52.753Z,100.00
2018-09-10T05:53:24.260Z,100.00
2018-09-10T05:54:47.562Z,100.00
2018-09-10T05:56:15.111Z,100.00
2018-09-10T05:57:45.961Z,100.00
2018-09-10T05:59:13.394Z,100.00
2018-09-10T06:00:40.388Z,100.00
2018-09-10T06:02:07.624Z,100.00
2018-09-10T06:03:35.178Z,100.00
2018-09-10T06:04:58.482Z,100.00
2018-09-10T06:06:29.296Z,100.00
2018-09-10T06:07:52.011Z,100.00
2018-09-10T06:09:23.466Z,100.00
2018-09-10T06:10:46.794Z,100.00
2018-09-10T06:12:18.297Z,100.00
2018-09-10T06:13:41.638Z,100.00
2018-09-10T06:15:09.083Z,100.00
2018-09-10T06:16:36.800Z,100.00
2018-09-10T06:18:08.309Z,100.00
2018-09-10T06:19:31.436Z,100.00
2018-09-10T06:20:58.882Z,100.00
2018-09-10T06:22:30.066Z,100.00
2018-09-10T06:23:57.594Z,100.00
2018-09-10T06:25:21.150Z,100.00
2018-09-10T06:26:51.670Z,100.00
2018-09-10T06:28:15.167Z,100.00
2018-09-10T06:29:41.753Z,100.00
2018-09-10T06:31:08.298Z,100.00
2018-09-10T06:32:34.992Z,100.00
2018-09-10T06:34:02.515Z,100.00
2018-09-10T06:35:29.959Z,100.00
2018-09-10T06:37:01.499Z,100.00
2018-09-10T06:38:28.912Z,100.00
2018-09-10T06:39:56.225Z,100.00
2018-09-10T06:41:19.709Z,100.00
2018-09-10T06:42:47.316Z,100.00
2018-09-10T06:44:23.051Z,100.00
2018-09-10T06:45:41.639Z,100.00
2018-09-10T06:47:13.223Z,100.00
2018-09-10T06:48:36.420Z,100.00
2018-09-10T06:50:03.269Z,100.00
2018-09-10T06:51:34.619Z,100.00
2018-09-10T06:53:02.120Z,100.00
2018-09-10T06:54:24.785Z,100.00
2018-09-10T06:55:56.181Z,100.00
2018-09-10T06:57:22.539Z,100.00
2018-09-10T06:58:46.102Z,100.00
2018-09-10T07:00:16.598Z,100.00
2018-09-10T07:01:40.108Z,100.00
2018-09-10T07:03:06.823Z,100.00
2018-09-10T07:04:33.915Z,100.00
2018-09-10T07:06:05.103Z,100.00
2018-09-10T07:07:32.008Z,100.00
2018-09-10T07:08:55.298Z,100.00
2018-09-10T07:10:26.702Z,100.00
2018-09-10T07:11:54.335Z,100.00
2018-09-10T07:13:21.062Z,100.00
2018-09-10T07:14:48.058Z,100.00
2018-09-10T07:16:11.565Z,100.00
2018-09-10T07:17:38.282Z,100.00
2018-09-10T07:19:09.544Z,100.00
2018-09-10T07:20:36.353Z,100.00
2018-09-10T07:22:03.478Z,100.00
2018-09-10T07:23:26.934Z,100.00
2018-09-10T07:24:53.382Z,100.00
2018-09-10T07:26:24.829Z,100.00
2018-09-10T07:27:52.360Z,100.00
2018-09-10T07:29:15.832Z,100.00
2018-09-10T07:30:46.491Z,100.00
2018-09-10T07:32:09.919Z,100.00
2018-09-10T07:33:37.365Z,100.00
2018-09-10T07:35:08.850Z,100.00
2018-09-10T07:36:31.111Z,100.00
2018-09-10T07:37:58.699Z,100.00
2018-09-10T07:39:26.015Z,100.00
2018-09-10T07:40:53.487Z,100.00
2018-09-10T07:42:21.028Z,100.00
2018-09-10T07:43:48.471Z,100.00
2018-09-10T07:45:15.934Z,100.00
2018-09-10T07:46:43.445Z,100.00
2018-09-10T07:48:14.946Z,100.00
2018-09-10T07:49:41.594Z,100.00
2018-09-10T07:51:09.048Z,100.00
2018-09-10T07:52:32.374Z,100.00
2018-09-10T07:54:03.908Z,100.00
2018-09-10T07:55:26.117Z,100.00
2018-09-10T07:56:57.742Z,100.00
2018-09-10T07:58:25.231Z,100.00
2018-09-10T07:59:48.217Z,100.00
2018-09-10T08:01:18.812Z,100.00
2018-09-10T08:02:46.352Z,100.00
2018-09-10T08:04:09.826Z,100.00
2018-09-10T08:05:37.260Z,100.00
2018-09-10T08:07:04.679Z,100.00
2018-09-10T08:08:32.171Z,100.00
2018-09-10T08:10:03.598Z,100.00
2018-09-10T08:11:30.983Z,100.00
2018-09-10T08:12:58.518Z,100.00
2018-09-10T08:14:26.017Z,100.00
2018-09-10T08:15:53.302Z,100.00
2018-09-10T08:17:16.733Z,100.00
2018-09-10T08:18:48.307Z,100.00
2018-09-10T08:20:11.253Z,100.00
2018-09-10T08:21:38.868Z,100.00
2018-09-10T08:23:06.339Z,100.00
2018-09-10T08:24:33.810Z,100.00
2018-09-10T08:26:05.046Z,100.00
2018-09-10T08:27:31.742Z,100.00
2018-09-10T08:28:54.499Z,100.00
2018-09-10T08:30:25.958Z,100.00
2018-09-10T08:31:49.387Z,100.00
2018-09-10T08:33:16.929Z,100.00
2018-09-10T08:34:44.552Z,100.00
2018-09-10T08:36:15.984Z,100.00
2018-09-10T08:37:43.427Z,100.00
2018-09-10T08:39:10.800Z,100.00
2018-09-10T08:40:34.070Z,100.00
2018-09-10T08:42:05.560Z,100.00
2018-09-10T08:43:32.724Z,100.00
2018-09-10T08:45:00.210Z,100.00
2018-09-10T08:46:27.053Z,100.00
2018-09-10T08:47:54.692Z,100.00
2018-09-10T08:49:22.201Z,100.00
2018-09-10T08:50:45.409Z,100.00
2018-09-10T08:52:12.048Z,100.00
2018-09-10T08:53:43.484Z,100.00
2018-09-10T08:55:07.094Z,100.00
2018-09-10T08:56:34.084Z,100.00
2018-09-10T08:58:05.409Z,100.00
2018-09-10T08:59:28.709Z,100.00
2018-09-10T09:01:00.128Z,100.00
2018-09-10T09:02:23.637Z,100.00
2018-09-10T09:03:55.259Z,100.00
2018-09-10T09:05:22.659Z,100.00
2018-09-10T09:06:50.146Z,100.00
2018-09-10T09:08:16.933Z,100.00
2018-09-10T09:09:40.410Z,100.00
2018-09-10T09:11:07.971Z,100.00
2018-09-10T09:12:39.538Z,100.00
2018-09-10T09:14:03.042Z,100.00
2018-09-10T09:15:34.592Z,100.00
2018-09-10T09:17:01.503Z,100.00
2018-09-10T09:18:24.642Z,100.00
2018-09-10T09:19:52.374Z,100.00
2018-09-10T09:21:23.989Z,100.00
2018-09-10T09:22:47.547Z,100.00
2018-09-10T09:24:15.030Z,100.00
2018-09-10T09:25:42.666Z,100.00
2018-09-10T09:27:10.134Z,100.00
2018-09-10T09:28:36.949Z,100.00
2018-09-10T09:30:04.117Z,100.00
2018-09-10T09:31:31.592Z,100.00
2018-09-10T09:33:03.252Z,100.00
2018-09-10T09:34:26.676Z,100.00
2018-09-10T09:35:58.092Z,100.00
2018-09-10T09:37:21.706Z,100.00
2018-09-10T09:38:49.144Z,100.00
2018-09-10T09:40:15.916Z,100.00
2018-09-10T09:41:43.377Z,100.00
2018-09-10T09:43:10.175Z,100.00
2018-09-10T09:44:41.133Z,100.00
2018-09-10T09:46:08.098Z,100.00
2018-09-10T09:47:35.512Z,100.00
2018-09-10T09:48:58.786Z,100.00
2018-09-10T09:50:30.393Z,100.00
2018-09-10T09:51:57.791Z,100.00
2018-09-10T09:53:24.826Z,100.00
2018-09-10T09:54:52.361Z,100.00
2018-09-10T09:56:15.410Z,100.00
2018-09-10T09:57:42.768Z,100.00
2018-09-10T09:59:14.174Z,100.00
2018-09-10T10:00:40.969Z,100.00
2018-09-10T10:02:04.218Z,100.00
2018-09-10T10:03:36.713Z,100.00
2018-09-10T10:04:58.590Z,100.00
2018-09-10T10:06:25.944Z,100.00
2018-09-10T10:07:53.654Z,100.00
2018-09-10T10:09:21.117Z,100.00
2018-09-10T10:10:48.837Z,100.00
2018-09-10T10:12:20.273Z,100.00
2018-09-10T10:13:42.997Z,100.00
2018-09-10T10:15:14.456Z,100.00
2018-09-10T10:16:37.949Z,100.00
2018-09-10T10:18:04.536Z,100.00
2018-09-10T10:19:36.212Z,100.00
2018-09-10T10:21:03.925Z,100.00
2018-09-10T10:22:30.801Z,100.00
2018-09-10T10:23:54.344Z,100.00
2018-09-10T10:25:21.260Z,100.00
2018-09-10T10:26:52.760Z,100.00
2018-09-10T10:28:20.634Z,100.00
2018-09-10T10:29:43.685Z,100.00
2018-09-10T10:31:15.228Z,100.00
2018-09-10T10:32:38.727Z,100.00
2018-09-10T10:34:06.232Z,100.00
2018-09-10T10:35:33.886Z,100.00
2018-09-10T10:37:01.392Z,100.00
2018-09-10T10:38:32.866Z,100.00
2018-09-10T10:39:56.360Z,100.00
2018-09-10T10:41:23.898Z,100.00
2018-09-10T10:42:51.253Z,100.00
2018-09-10T10:44:18.893Z,100.00
2018-09-10T10:45:46.453Z,100.00
2018-09-10T10:47:14.067Z,100.00
2018-09-10T10:48:44.754Z,100.00
2018-09-10T10:50:08.124Z,100.00
2018-09-10T10:51:34.583Z,100.00
2018-09-10T10:53:05.982Z,100.00
2018-09-10T10:54:33.225Z,100.00
2018-09-10T10:56:00.517Z,100.00
2018-09-10T10:57:24.049Z,100.00
2018-09-10T10:58:51.413Z,100.00
2018-09-10T11:00:22.969Z,100.00
2018-09-10T11:01:46.456Z,100.00
2018-09-10T11:03:13.929Z,100.00
2018-09-10T11:04:41.405Z,100.00
2018-09-10T11:06:09.018Z,100.00
2018-09-10T11:07:39.584Z,100.00
2018-09-10T11:09:03.115Z,100.00
2018-09-10T11:10:30.092Z,100.00
2018-09-10T11:11:56.972Z,100.00
2018-09-10T11:13:28.476Z,100.00
2018-09-10T11:14:52.187Z,100.00
2018-09-10T11:16:23.262Z,100.00
2018-09-10T11:17:50.745Z,100.00
2018-09-10T11:19:14.214Z,100.00
2018-09-10T11:20:45.463Z,100.00
2018-09-10T11:22:13.165Z,100.00
2018-09-10T11:23:41.647Z,100.00
2018-09-10T11:25:03.375Z,100.00
2018-09-10T11:26:35.550Z,100.00
2018-09-10T11:28:01.293Z,100.00
2018-09-10T11:29:28.651Z,100.00
2018-09-10T11:30:56.115Z,100.00
2018-09-10T11:32:19.726Z,100.00
2018-09-10T11:33:50.685Z,100.00
2018-09-10T11:35:18.178Z,100.00
2018-09-10T11:36:41.672Z,100.00
2018-09-10T11:38:08.375Z,100.00
2018-09-10T11:39:39.920Z,100.00
2018-09-10T11:41:07.418Z,100.00
2018-09-10T11:42:34.874Z,100.00
2018-09-10T11:44:01.937Z,100.00
2018-09-10T11:45:24.851Z,100.00
2018-09-10T11:46:56.462Z,100.00
2018-09-10T11:48:23.407Z,100.00
2018-09-10T11:49:46.132Z,100.00
2018-09-10T11:51:13.576Z,100.00
2018-09-10T11:52:45.247Z,100.00
2018-09-10T11:54:12.542Z,100.00
2018-09-10T11:55:39.776Z,100.00
2018-09-10T11:57:03.161Z,100.00
2018-09-10T11:58:30.255Z,100.00
2018-09-10T12:00:01.690Z,100.00
2018-09-10T12:01:25.403Z,100.00
2018-09-10T12:02:56.707Z,100.00
2018-09-10T12:04:19.487Z,100.00
2018-09-10T12:05:47.074Z,100.00
2018-09-10T12:07:14.858Z,100.00
2018-09-10T12:08:46.404Z,100.00
2018-09-10T12:10:10.050Z,100.00
2018-09-10T12:11:37.650Z,100.00
2018-09-10T12:13:09.220Z,100.00
2018-09-10T12:14:36.563Z,100.00
2018-09-10T12:16:03.750Z,100.00
2018-09-10T12:17:26.861Z,100.00
2018-09-10T12:18:53.705Z,100.00
2018-09-10T12:20:22.049Z,100.00
2018-09-10T12:21:47.999Z,100.00
2018-09-10T12:23:19.571Z,100.00
2018-09-10T12:24:43.130Z,100.00
2018-09-10T12:26:10.100Z,100.00
2018-09-10T12:27:37.948Z,100.00
2018-09-10T12:29:05.183Z,100.00
2018-09-10T12:30:36.654Z,100.00
2018-09-10T12:32:04.143Z,100.00
2018-09-10T12:33:27.322Z,100.00
2018-09-10T12:34:53.983Z,100.00
2018-09-10T12:36:20.901Z,100.00
2018-09-10T12:37:52.499Z,100.00
2018-09-10T12:39:19.442Z,100.00
2018-09-10T12:40:46.858Z,97.49
2018-09-10T12:42:10.497Z,99.17
2018-09-10T12:43:41.301Z,100.00
2018-09-10T12:45:08.772Z,96.30
2018-09-10T12:46:32.119Z,97.34
2018-09-10T12:47:59.750Z,94.53
2018-09-10T12:49:27.362Z,95.65
2018-09-10T12:50:58.300Z,92.08
2018-09-10T12:52:21.763Z,88.58
2018-09-10T12:53:53.250Z,87.89
2018-09-10T12:55:16.867Z,86.39
2018-09-10T12:56:44.600Z,87.82
2018-09-10T12:58:11.142Z,87.31
2018-09-10T12:59:42.722Z,85.83
2018-09-10T13:01:10.376Z,86.41
2018-09-10T13:02:37.787Z,88.42
2018-09-10T13:04:01.398Z,89.13
2018-09-10T13:05:29.025Z,87.54
2018-09-10T13:07:00.235Z,87.73
2018-09-10T13:08:27.038Z,87.92
2018-09-10T13:09:50.721Z,88.98
2018-09-10T13:11:18.410Z,89.58
2018-09-10T13:12:49.944Z,89.58
2018-09-10T13:14:17.569Z,91.23
2018-09-10T13:15:45.246Z,92.35
2018-09-10T13:17:08.954Z,92.08
2018-09-10T13:18:39.454Z,91.73
2018-09-10T13:20:06.877Z,92.48
2018-09-10T13:21:34.517Z,92.05
2018-09-10T13:22:57.891Z,92.89
2018-09-10T13:24:25.350Z,93.18
2018-09-10T13:25:56.994Z,94.70
2018-09-10T13:27:23.799Z,95.19
2018-09-10T13:28:47.505Z,93.80
2018-09-10T13:30:18.559Z,93.03
2018-09-10T13:31:41.950Z,94.19
2018-09-10T13:33:12.624Z,95.49
2018-09-10T13:34:36.258Z,91.94
2018-09-10T13:36:07.723Z,93.22
2018-09-10T13:37:34.747Z,93.51
2018-09-10T13:38:58.230Z,94.03
2018-09-10T13:40:29.768Z,94.12
2018-09-10T13:41:57.436Z,95.11
2018-09-10T13:43:20.056Z,95.48
2018-09-10T13:44:50.975Z,92.94
2018-09-10T13:46:14.418Z,93.68
2018-09-10T13:47:42.058Z,92.52
2018-09-10T13:49:13.649Z,93.69
2018-09-10T13:50:41.213Z,93.69
2018-09-10T13:52:04.698Z,90.81
2018-09-10T13:53:32.250Z,91.31
2018-09-10T13:54:59.906Z,89.61
2018-09-10T13:56:31.467Z,89.04
2018-09-10T13:57:54.772Z,89.22
2018-09-10T13:59:26.445Z,88.91
2018-09-10T14:00:49.972Z,91.04
2018-09-10T14:02:21.484Z,93.64
2018-09-10T14:03:49.265Z,92.82
2018-09-10T14:05:11.904Z,91.88
2018-09-10T14:06:39.556Z,93.39
2018-09-10T14:08:06.001Z,93.98
2018-09-10T14:09:33.674Z,96.42
2018-09-10T14:11:05.156Z,96.63
2018-09-10T14:12:32.561Z,94.42
2018-09-10T14:13:56.172Z,94.87
2018-09-10T14:15:23.737Z,94.68
2018-09-10T14:16:51.261Z,94.01
2018-09-10T14:18:18.836Z,98.07
2018-09-10T14:19:46.251Z,98.29
2018-09-10T14:21:14.057Z,99.86
2018-09-10T14:22:45.548Z,100.00
2018-09-10T14:24:09.150Z,97.87
2018-09-10T14:25:37.053Z,98.38
2018-09-10T14:27:04.249Z,99.87
2018-09-10T14:28:31.661Z,99.81
2018-09-10T14:29:59.225Z,99.66
2018-09-10T14:31:30.565Z,99.18
2018-09-10T14:32:58.241Z,97.39
2018-09-10T14:34:24.519Z,98.53
2018-09-10T14:35:51.741Z,98.42
2018-09-10T14:37:15.193Z,98.56
2018-09-10T14:38:46.177Z,98.04
2018-09-10T14:40:09.717Z,98.85
2018-09-10T14:41:37.261Z,99.14
2018-09-10T14:43:04.759Z,100.00
2018-09-10T14:44:31.823Z,100.00
2018-09-10T14:45:59.242Z,100.00
2018-09-10T14:47:26.418Z,100.00
2018-09-10T14:48:53.961Z,100.00
2018-09-10T14:50:21.806Z,100.00
2018-09-10T14:51:48.252Z,100.00
2018-09-10T14:53:20.020Z,100.00
2018-09-10T14:54:47.551Z,100.00
2018-09-10T14:56:14.331Z,100.00
2018-09-10T14:57:37.779Z,100.00
2018-09-10T14:59:05.278Z,100.00
2018-09-10T15:00:36.606Z,100.00
2018-09-10T15:01:59.766Z,100.00
2018-09-10T15:03:27.158Z,100.00
2018-09-10T15:04:58.770Z,100.00
2018-09-10T15:06:22.277Z,100.00
2018-09-10T15:07:53.777Z,100.00
2018-09-10T15:09:17.339Z,100.00
2018-09-10T15:10:44.648Z,100.00
2018-09-10T15:12:12.293Z,100.00
2018-09-10T15:13:43.807Z,100.00
2018-09-10T15:15:06.590Z,100.00
2018-09-10T15:16:37.652Z,100.00
2018-09-10T15:18:00.719Z,100.00
2018-09-10T15:19:28.297Z,100.00
2018-09-10T15:20:55.924Z,100.00
2018-09-10T15:22:27.418Z,100.00
2018-09-10T15:23:51.224Z,100.00
2018-09-10T15:25:18.818Z,100.00
2018-09-10T15:26:50.188Z,100.00
2018-09-10T15:28:13.278Z,100.00
2018-09-10T15:29:44.776Z,100.00
2018-09-10T15:31:12.226Z,100.00
2018-09-10T15:32:39.804Z,100.00
2018-09-10T15:34:03.238Z,100.00
2018-09-10T15:35:30.174Z,100.00
2018-09-10T15:37:01.477Z,100.00
2018-09-10T15:38:24.760Z,100.00
2018-09-10T15:39:52.169Z,100.00
2018-09-10T15:41:19.835Z,100.00
2018-09-10T15:42:47.387Z,100.00
2018-09-10T15:44:13.882Z,100.00
2018-09-10T15:45:41.280Z,100.00
2018-09-10T15:47:08.977Z,100.00
2018-09-10T15:48:39.748Z,100.00
2018-09-10T15:50:03.170Z,100.00
2018-09-10T15:51:30.604Z,100.00
2018-09-10T15:52:57.991Z,100.00
2018-09-10T15:54:25.675Z,100.00
2018-09-10T15:55:53.384Z,100.00
2018-09-10T15:57:20.291Z,100.00
2018-09-10T15:58:51.065Z,100.00
2018-09-10T16:00:14.475Z,100.00
2018-09-10T16:01:41.887Z,100.00
2018-09-10T16:03:12.784Z,100.00
2018-09-10T16:04:36.214Z,100.00
2018-09-10T16:06:07.966Z,100.00
2018-09-10T16:07:31.605Z,100.00
2018-09-10T16:09:02.886Z,100.00
2018-09-10T16:10:25.508Z,100.00
2018-09-10T16:11:52.994Z,100.00
2018-09-10T16:13:24.521Z,100.00
2018-09-10T16:14:48.038Z,100.00
2018-09-10T16:16:19.481Z,100.00
2018-09-10T16:17:42.997Z,100.00
2018-09-10T16:20:37.850Z,100.00
2018-09-10T16:22:09.187Z,100.00
2018-09-10T16:23:32.888Z,100.00
2018-09-10T16:25:03.852Z,100.00
2018-09-10T16:26:27.211Z,100.00
2018-09-10T16:27:54.911Z,100.00
2018-09-10T16:29:22.481Z,100.00
2018-09-10T16:30:53.881Z,100.00
2018-09-10T16:32:17.329Z,100.00
2018-09-10T16:33:48.889Z,100.00
2018-09-10T16:35:12.409Z,100.00
2018-09-10T16:36:40.106Z,100.00
2018-09-10T16:38:06.611Z,100.00
2018-09-10T16:39:38.264Z,100.00
2018-09-10T16:41:05.648Z,100.00
2018-09-10T16:42:28.599Z,100.00
2018-09-10T16:43:55.975Z,100.00
2018-09-10T16:45:23.607Z,100.00
2018-09-10T16:46:51.433Z,100.00
2018-09-10T16:48:19.029Z,100.00
2018-09-10T16:49:49.434Z,100.00
2018-09-10T16:52:44.363Z,100.00
2018-09-10T16:54:07.933Z,100.00
2018-09-10T16:55:39.422Z,100.00
2018-09-10T16:57:02.885Z,100.00
2018-09-10T16:58:34.464Z,100.00
2018-09-10T17:00:01.765Z,100.00
2018-09-10T17:01:25.366Z,100.00
2018-09-10T17:02:52.878Z,100.00
2018-09-10T17:04:24.494Z,100.00
2018-09-10T17:05:51.817Z,100.00
2018-09-10T17:07:19.341Z,100.00
2018-09-10T17:08:42.848Z,100.00
2018-09-10T17:10:14.306Z,100.00
2018-09-10T17:11:41.771Z,100.00
2018-09-10T17:13:05.267Z,100.00
2018-09-10T17:14:32.642Z,100.00
2018-09-10T17:16:00.128Z,100.00
2018-09-10T17:17:27.647Z,100.00
2018-09-10T17:18:59.234Z,100.00
2018-09-10T17:20:22.678Z,100.00
2018-09-10T17:21:50.267Z,100.00
2018-09-10T17:23:25.964Z,100.00
2018-09-10T17:24:45.291Z,100.00
2018-09-10T17:26:12.646Z,100.00
2018-09-10T17:27:40.246Z,100.00
2018-09-10T17:29:07.726Z,100.00
2018-09-10T17:30:35.422Z,100.00
2018-09-10T17:32:02.843Z,100.00
2018-09-10T17:33:33.964Z,100.00
2018-09-10T17:34:56.603Z,100.00
2018-09-10T17:36:26.907Z,100.00
2018-09-10T17:37:54.323Z,100.00
2018-09-10T17:39:21.483Z,100.00
2018-09-10T17:40:42.721Z,100.00
2018-09-10T17:43:37.587Z,100.00
2018-09-10T17:46:34.771Z,100.00
2018-09-10T17:48:02.287Z,100.00
2018-09-10T17:49:29.857Z,100.00
2018-09-10T17:50:52.558Z,100.00
2018-09-10T17:52:24.134Z,100.00
2018-09-10T17:53:47.699Z,100.00
2018-09-10T17:55:13.825Z,100.00
2018-09-10T17:56:41.464Z,100.00
2018-09-10T17:58:08.946Z,100.00
2018-09-10T17:59:40.419Z,100.00
2018-09-10T18:01:03.020Z,100.00
2018-09-10T18:02:30.020Z,100.00
2018-09-10T18:03:56.065Z,100.00
2018-09-10T18:05:23.430Z,100.00
2018-09-10T18:06:55.100Z,100.00
2018-09-10T18:08:22.501Z,100.00
2018-09-10T18:09:49.997Z,100.00
2018-09-10T18:11:12.251Z,100.00
2018-09-10T18:12:42.574Z,100.00
2018-09-10T18:14:06.059Z,100.00
2018-09-10T18:15:37.300Z,100.00
2018-09-10T18:16:59.899Z,100.00
2018-09-10T18:18:31.437Z,100.00
2018-09-10T18:19:57.754Z,100.00
2018-09-10T18:21:27.002Z,100.00
2018-09-10T18:22:50.468Z,100.00
2018-09-10T18:24:14.012Z,100.00
2018-09-10T18:27:08.843Z,100.00
2018-09-10T18:28:35.428Z,100.00
2018-09-10T18:30:02.949Z,100.00